sensor_id;sensor_type;location;lat;lon;timestamp;pressure;altitude;pressure_sealevel;temperature;humidity
20612;BME280;10465;42.686;23.364;2023-06-10T00:00:15;94605.66;;;20.62;86.72
20612;BME280;10465;42.686;23.364;2023-06-10T00:02:41;94607.53;;;20.62;87.00
20612;BME280;10465;42.686;23.364;2023-06-10T00:05:08;94616.75;;;20.57;87.27
20612;BME280;10465;42.686;23.364;2023-06-10T00:07:35;94618.19;;;20.47;87.33
20612;BME280;10465;42.686;23.364;2023-06-10T00:10:04;94617.75;;;20.38;87.90
20612;BME280;10465;42.686;23.364;2023-06-10T00:12:31;94613.44;;;20.27;88.47
20612;BME280;10465;42.686;23.364;2023-06-10T00:15:00;94608.00;;;20.19;88.92
20612;BME280;10465;42.686;23.364;2023-06-10T00:17:25;94614.09;;;20.16;89.43
20612;BME280;10465;42.686;23.364;2023-06-10T00:19:54;94582.81;;;19.90;90.06
20612;BME280;10465;42.686;23.364;2023-06-10T00:22:20;94611.44;;;20.16;90.13
20612;BME280;10465;42.686;23.364;2023-06-10T00:24:47;94612.97;;;20.14;90.08
20612;BME280;10465;42.686;23.364;2023-06-10T00:27:13;94602.59;;;20.16;89.77
20612;BME280;10465;42.686;23.364;2023-06-10T00:29:38;94590.28;;;20.11;89.94
20612;BME280;10465;42.686;23.364;2023-06-10T00:32:04;94605.31;;;20.19;90.05
20612;BME280;10465;42.686;23.364;2023-06-10T00:34:30;94609.94;;;20.22;90.06
20612;BME280;10465;42.686;23.364;2023-06-10T00:36:55;94616.53;;;20.32;89.50
20612;BME280;10465;42.686;23.364;2023-06-10T00:39:21;94578.00;;;20.10;89.63
20612;BME280;10465;42.686;23.364;2023-06-10T00:41:46;94608.13;;;20.37;89.08
20612;BME280;10465;42.686;23.364;2023-06-10T00:44:11;94604.22;;;20.28;89.47
20612;BME280;10465;42.686;23.364;2023-06-10T00:46:37;94610.66;;;20.16;89.76
20612;BME280;10465;42.686;23.364;2023-06-10T00:49:03;94609.88;;;20.15;90.50
20612;BME280;10465;42.686;23.364;2023-06-10T00:51:29;94596.66;;;19.96;91.30
20612;BME280;10465;42.686;23.364;2023-06-10T00:53:55;94605.66;;;20.14;90.50
20612;BME280;10465;42.686;23.364;2023-06-10T00:56:20;94598.34;;;20.11;90.49
20612;BME280;10465;42.686;23.364;2023-06-10T00:58:47;94611.06;;;20.18;89.91
20612;BME280;10465;42.686;23.364;2023-06-10T01:01:13;94616.53;;;20.32;89.33
20612;BME280;10465;42.686;23.364;2023-06-10T01:03:39;94598.31;;;20.08;89.52
20612;BME280;10465;42.686;23.364;2023-06-10T01:06:17;94619.94;;;20.22;90.17
20612;BME280;10465;42.686;23.364;2023-06-10T01:09:09;94626.50;;;20.28;88.99
20612;BME280;10465;42.686;23.364;2023-06-10T01:11:36;94618.41;;;20.24;90.01
20612;BME280;10465;42.686;23.364;2023-06-10T01:14:03;94605.97;;;20.06;89.98
20612;BME280;10465;42.686;23.364;2023-06-10T01:16:30;94626.41;;;20.14;89.87
20612;BME280;10465;42.686;23.364;2023-06-10T01:18:56;94622.56;;;20.15;89.82
20612;BME280;10465;42.686;23.364;2023-06-10T01:21:22;94627.97;;;20.18;89.49
20612;BME280;10465;42.686;23.364;2023-06-10T01:23:53;94609.91;;;20.19;89.30
20612;BME280;10465;42.686;23.364;2023-06-10T01:26:22;94612.63;;;20.22;89.16
20612;BME280;10465;42.686;23.364;2023-06-10T01:29:06;94624.19;;;20.27;89.19
20612;BME280;10465;42.686;23.364;2023-06-10T01:31:51;94622.63;;;20.22;88.95
20612;BME280;10465;42.686;23.364;2023-06-10T01:34:21;94613.34;;;20.16;89.50
20612;BME280;10465;42.686;23.364;2023-06-10T01:36:49;94608.38;;;20.21;90.00
20612;BME280;10465;42.686;23.364;2023-06-10T01:39:17;94612.59;;;20.19;89.85
20612;BME280;10465;42.686;23.364;2023-06-10T01:41:43;94616.91;;;20.31;89.29
20612;BME280;10465;42.686;23.364;2023-06-10T01:44:09;94589.56;;;20.18;88.95
20612;BME280;10465;42.686;23.364;2023-06-10T01:46:35;94615.38;;;20.33;89.13
20612;BME280;10465;42.686;23.364;2023-06-10T01:49:00;94586.56;;;20.27;88.84
20612;BME280;10465;42.686;23.364;2023-06-10T01:51:26;94599.69;;;20.35;89.09
20612;BME280;10465;42.686;23.364;2023-06-10T01:53:51;94604.31;;;20.38;89.96
20612;BME280;10465;42.686;23.364;2023-06-10T01:56:17;94609.69;;;20.38;90.39
20612;BME280;10465;42.686;23.364;2023-06-10T01:58:48;94576.13;;;20.18;89.86
20612;BME280;10465;42.686;23.364;2023-06-10T02:01:13;94606.97;;;20.35;90.10
20612;BME280;10465;42.686;23.364;2023-06-10T02:03:39;94577.63;;;20.15;90.28
20612;BME280;10465;42.686;23.364;2023-06-10T02:06:05;94558.72;;;20.01;90.23
20612;BME280;10465;42.686;23.364;2023-06-10T02:08:30;94598.41;;;20.18;90.91
20612;BME280;10465;42.686;23.364;2023-06-10T02:10:56;94600.31;;;20.18;90.95
20612;BME280;10465;42.686;23.364;2023-06-10T02:13:21;94561.78;;;19.99;90.84
20612;BME280;10465;42.686;23.364;2023-06-10T02:15:47;94595.38;;;20.27;90.62
20612;BME280;10465;42.686;23.364;2023-06-10T02:18:12;94604.31;;;20.38;90.63
20612;BME280;10465;42.686;23.364;2023-06-10T02:20:38;94594.28;;;20.35;90.68
20612;BME280;10465;42.686;23.364;2023-06-10T02:23:04;94581.50;;;20.18;91.68
20612;BME280;10465;42.686;23.364;2023-06-10T02:25:29;94573.84;;;20.20;91.05
20612;BME280;10465;42.686;23.364;2023-06-10T02:27:55;94566.09;;;20.11;91.89
20612;BME280;10465;42.686;23.364;2023-06-10T02:30:21;94549.19;;;20.11;91.29
20612;BME280;10465;42.686;23.364;2023-06-10T02:32:46;94577.34;;;20.28;91.91
20612;BME280;10465;42.686;23.364;2023-06-10T02:35:14;94564.97;;;20.16;92.36
20612;BME280;10465;42.686;23.364;2023-06-10T02:37:39;94555.69;;;20.06;92.42
20612;BME280;10465;42.686;23.364;2023-06-10T02:40:06;94569.25;;;20.24;91.98
20612;BME280;10465;42.686;23.364;2023-06-10T02:42:31;94558.50;;;20.24;91.61
20612;BME280;10465;42.686;23.364;2023-06-10T02:44:57;94576.56;;;20.27;92.01
20612;BME280;10465;42.686;23.364;2023-06-10T02:47:22;94575.44;;;20.32;91.96
20612;BME280;10465;42.686;23.364;2023-06-10T02:49:48;94566.22;;;20.29;91.52
20612;BME280;10465;42.686;23.364;2023-06-10T02:52:13;94566.25;;;20.36;91.50
20612;BME280;10465;42.686;23.364;2023-06-10T02:54:39;94533.91;;;20.18;91.06
20612;BME280;10465;42.686;23.364;2023-06-10T02:57:05;94567.06;;;20.40;90.92
20612;BME280;10465;42.686;23.364;2023-06-10T02:59:31;94563.59;;;20.40;90.50
20612;BME280;10465;42.686;23.364;2023-06-10T03:01:57;94563.22;;;20.38;90.91
20612;BME280;10465;42.686;23.364;2023-06-10T03:04:23;94568.31;;;20.50;91.04
20612;BME280;10465;42.686;23.364;2023-06-10T03:06:50;94576.75;;;20.48;90.87
20612;BME280;10465;42.686;23.364;2023-06-10T03:09:16;94559.38;;;20.39;90.87
20612;BME280;10465;42.686;23.364;2023-06-10T03:11:41;94577.50;;;20.49;90.99
20612;BME280;10465;42.686;23.364;2023-06-10T03:14:06;94580.94;;;20.46;92.00
20612;BME280;10465;42.686;23.364;2023-06-10T03:16:32;94562.38;;;20.27;93.03
20612;BME280;10465;42.686;23.364;2023-06-10T03:18:57;94579.75;;;20.43;93.85
20612;BME280;10465;42.686;23.364;2023-06-10T03:21:23;94563.88;;;20.24;94.15
20612;BME280;10465;42.686;23.364;2023-06-10T03:23:48;94583.16;;;20.37;94.71
20612;BME280;10465;42.686;23.364;2023-06-10T03:26:14;94556.91;;;20.16;95.02
20612;BME280;10465;42.686;23.364;2023-06-10T03:28:41;94594.28;;;20.35;95.21
20612;BME280;10465;42.686;23.364;2023-06-10T03:31:06;94599.25;;;20.33;95.47
20612;BME280;10465;42.686;23.364;2023-06-10T03:33:32;94596.94;;;20.28;95.90
20612;BME280;10465;42.686;23.364;2023-06-10T03:35:58;94596.13;;;20.24;96.00
20612;BME280;10465;42.686;23.364;2023-06-10T03:38:23;94605.25;;;20.12;96.80
20612;BME280;10465;42.686;23.364;2023-06-10T03:40:49;94597.09;;;19.98;96.91
20612;BME280;10465;42.686;23.364;2023-06-10T03:43:14;94610.91;;;20.00;97.55
20612;BME280;10465;42.686;23.364;2023-06-10T03:45:40;94553.78;;;19.62;96.86
20612;BME280;10465;42.686;23.364;2023-06-10T03:48:06;94588.00;;;19.69;95.90
20612;BME280;10465;42.686;23.364;2023-06-10T03:50:34;94595.75;;;19.78;95.46
20612;BME280;10465;42.686;23.364;2023-06-10T03:52:59;94594.63;;;19.82;95.59
20612;BME280;10465;42.686;23.364;2023-06-10T03:55:25;94596.19;;;19.83;96.46
20612;BME280;10465;42.686;23.364;2023-06-10T03:57:50;94583.91;;;19.82;96.06
20612;BME280;10465;42.686;23.364;2023-06-10T04:00:16;94597.00;;;19.91;95.54
20612;BME280;10465;42.686;23.364;2023-06-10T04:02:45;94591.59;;;19.87;95.21
20612;BME280;10465;42.686;23.364;2023-06-10T04:05:13;94582.63;;;19.69;95.75
20612;BME280;10465;42.686;23.364;2023-06-10T04:07:39;94587.72;;;19.81;95.06
20612;BME280;10465;42.686;23.364;2023-06-10T04:10:07;94601.28;;;19.95;93.25
20612;BME280;10465;42.686;23.364;2023-06-10T04:12:32;94599.66;;;19.87;92.09
20612;BME280;10465;42.686;23.364;2023-06-10T04:14:58;94581.88;;;19.72;92.37
20612;BME280;10465;42.686;23.364;2023-06-10T04:17:23;94606.53;;;19.85;92.06
20612;BME280;10465;42.686;23.364;2023-06-10T04:19:49;94586.13;;;19.76;92.17
20612;BME280;10465;42.686;23.364;2023-06-10T04:22:16;94604.66;;;19.89;92.21
20612;BME280;10465;42.686;23.364;2023-06-10T04:24:42;94610.84;;;19.93;92.67
20612;BME280;10465;42.686;23.364;2023-06-10T04:27:07;94611.56;;;19.86;92.39
20612;BME280;10465;42.686;23.364;2023-06-10T04:29:33;94590.84;;;19.87;92.06
20612;BME280;10465;42.686;23.364;2023-06-10T04:31:58;94617.81;;;20.01;92.01
20612;BME280;10465;42.686;23.364;2023-06-10T04:34:24;94598.19;;;19.93;92.08
20612;BME280;10465;42.686;23.364;2023-06-10T04:36:50;94585.50;;;19.90;91.95
20612;BME280;10465;42.686;23.364;2023-06-10T04:39:16;94605.22;;;20.09;91.53
20612;BME280;10465;42.686;23.364;2023-06-10T04:41:42;94600.22;;;20.07;91.04
20612;BME280;10465;42.686;23.364;2023-06-10T04:44:07;94613.72;;;20.14;91.26
20612;BME280;10465;42.686;23.364;2023-06-10T04:46:33;94611.06;;;20.18;91.01
20612;BME280;10465;42.686;23.364;2023-06-10T04:48:58;94606.47;;;20.18;91.08
20612;BME280;10465;42.686;23.364;2023-06-10T04:51:24;94588.34;;;20.12;90.94
20612;BME280;10465;42.686;23.364;2023-06-10T04:53:49;94602.28;;;20.24;91.12
20612;BME280;10465;42.686;23.364;2023-06-10T04:56:14;94615.00;;;20.31;91.00
20612;BME280;10465;42.686;23.364;2023-06-10T04:58:41;94596.50;;;20.22;90.83
20612;BME280;10465;42.686;23.364;2023-06-10T05:01:07;94603.09;;;20.32;92.00
20612;BME280;10465;42.686;23.364;2023-06-10T05:03:32;94605.00;;;20.28;92.36
20612;BME280;10465;42.686;23.364;2023-06-10T05:05:58;94573.75;;;20.06;93.16
20612;BME280;10465;42.686;23.364;2023-06-10T05:08:23;94583.75;;;20.12;94.15
20612;BME280;10465;42.686;23.364;2023-06-10T05:10:48;94602.31;;;20.28;94.69
20612;BME280;10465;42.686;23.364;2023-06-10T05:13:15;94596.56;;;20.30;93.86
20612;BME280;10465;42.686;23.364;2023-06-10T05:15:40;94591.97;;;20.30;93.09
20612;BME280;10465;42.686;23.364;2023-06-10T05:18:09;94592.00;;;20.34;92.52
20612;BME280;10465;42.686;23.364;2023-06-10T05:20:35;94599.34;;;20.44;92.42
20612;BME280;10465;42.686;23.364;2023-06-10T05:23:00;94573.59;;;20.39;91.74
20612;BME280;10465;42.686;23.364;2023-06-10T05:25:26;94582.88;;;20.49;91.07
20612;BME280;10465;42.686;23.364;2023-06-10T05:27:52;94588.28;;;20.53;90.96
20612;BME280;10465;42.686;23.364;2023-06-10T05:30:18;94596.81;;;20.65;90.08
20612;BME280;10465;42.686;23.364;2023-06-10T05:32:44;94607.19;;;20.63;90.11
20612;BME280;10465;42.686;23.364;2023-06-10T05:35:09;94603.72;;;20.63;91.11
20612;BME280;10465;42.686;23.364;2023-06-10T05:37:35;94608.00;;;20.71;90.87
20612;BME280;10465;42.686;23.364;2023-06-10T05:40:02;94610.34;;;20.76;90.96
20612;BME280;10465;42.686;23.364;2023-06-10T05:42:29;94606.13;;;20.79;90.58
20612;BME280;10465;42.686;23.364;2023-06-10T05:44:55;94608.44;;;20.80;90.55
20612;BME280;10465;42.686;23.364;2023-06-10T05:47:20;94596.91;;;20.80;90.79
20612;BME280;10465;42.686;23.364;2023-06-10T05:49:46;94619.25;;;20.87;90.82
20612;BME280;10465;42.686;23.364;2023-06-10T05:52:13;94611.56;;;20.89;90.32
20612;BME280;10465;42.686;23.364;2023-06-10T05:54:38;94605.00;;;20.83;89.83
20612;BME280;10465;42.686;23.364;2023-06-10T05:57:04;94611.63;;;21.00;89.66
20612;BME280;10465;42.686;23.364;2023-06-10T05:59:31;94611.97;;;20.91;89.67
20612;BME280;10465;42.686;23.364;2023-06-10T06:01:56;94625.84;;;21.04;89.01
20612;BME280;10465;42.686;23.364;2023-06-10T06:04:21;94609.69;;;21.01;88.92
20612;BME280;10465;42.686;23.364;2023-06-10T06:06:47;94623.59;;;21.17;89.50
20612;BME280;10465;42.686;23.364;2023-06-10T06:09:12;94618.63;;;21.19;89.02
20612;BME280;10465;42.686;23.364;2023-06-10T06:11:38;94628.66;;;21.29;88.40
20612;BME280;10465;42.686;23.364;2023-06-10T06:14:03;94607.09;;;21.22;88.47
20612;BME280;10465;42.686;23.364;2023-06-10T06:16:29;94619.47;;;21.34;87.82
20612;BME280;10465;42.686;23.364;2023-06-10T06:18:54;94611.78;;;21.32;87.97
20612;BME280;10465;42.686;23.364;2023-06-10T06:21:20;94622.19;;;21.41;86.82
20612;BME280;10465;42.686;23.364;2023-06-10T06:23:45;94594.00;;;21.20;86.32
20612;BME280;10465;42.686;23.364;2023-06-10T06:26:10;94597.09;;;21.22;87.22
20612;BME280;10465;42.686;23.364;2023-06-10T06:28:42;94627.19;;;21.46;86.49
20612;BME280;10465;42.686;23.364;2023-06-10T06:31:07;94619.91;;;21.54;85.77
20612;BME280;10465;42.686;23.364;2023-06-10T06:33:33;94619.13;;;21.50;84.44
20612;BME280;10465;42.686;23.364;2023-06-10T06:35:58;94625.72;;;21.59;83.35
20612;BME280;10465;42.686;23.364;2023-06-10T06:38:26;94625.72;;;21.66;83.06
20612;BME280;10465;42.686;23.364;2023-06-10T06:40:51;94611.50;;;21.69;82.93
20612;BME280;10465;42.686;23.364;2023-06-10T06:43:16;94616.50;;;21.71;84.07
20612;BME280;10465;42.686;23.364;2023-06-10T06:45:44;94611.13;;;21.67;84.15
20612;BME280;10465;42.686;23.364;2023-06-10T06:48:11;94618.44;;;21.74;85.17
20612;BME280;10465;42.686;23.364;2023-06-10T06:50:37;94580.31;;;21.58;85.68
20612;BME280;10465;42.686;23.364;2023-06-10T06:53:03;94609.59;;;21.77;85.35
20612;BME280;10465;42.686;23.364;2023-06-10T06:55:29;94608.06;;;21.87;84.57
20612;BME280;10465;42.686;23.364;2023-06-10T06:57:54;94605.38;;;21.80;83.11
20612;BME280;10465;42.686;23.364;2023-06-10T07:00:20;94609.59;;;21.91;83.38
20612;BME280;10465;42.686;23.364;2023-06-10T07:02:49;94610.78;;;21.97;83.58
20612;BME280;10465;42.686;23.364;2023-06-10T07:05:14;94577.66;;;21.86;80.04
20612;BME280;10465;42.686;23.364;2023-06-10T07:07:40;94616.53;;;22.07;78.76
20612;BME280;10465;42.686;23.364;2023-06-10T07:10:06;94608.88;;;22.12;77.78
20612;BME280;10465;42.686;23.364;2023-06-10T07:12:31;94587.31;;;22.09;76.91
20612;BME280;10465;42.686;23.364;2023-06-10T07:14:57;94607.72;;;22.28;76.22
20612;BME280;10465;42.686;23.364;2023-06-10T07:17:22;94599.63;;;22.28;74.88
20612;BME280;10465;42.686;23.364;2023-06-10T07:19:48;94581.94;;;22.30;74.80
20612;BME280;10465;42.686;23.364;2023-06-10T07:22:14;94602.34;;;22.45;73.84
20612;BME280;10465;42.686;23.364;2023-06-10T07:24:39;94604.22;;;22.56;71.41
20612;BME280;10465;42.686;23.364;2023-06-10T07:27:05;94600.41;;;22.50;69.09
20612;BME280;10465;42.686;23.364;2023-06-10T07:29:31;94601.53;;;22.59;68.13
20612;BME280;10465;42.686;23.364;2023-06-10T07:31:56;94578.81;;;22.53;68.01
20612;BME280;10465;42.686;23.364;2023-06-10T07:34:22;94597.66;;;22.67;68.40
20612;BME280;10465;42.686;23.364;2023-06-10T07:36:47;94565.34;;;22.50;66.95
20612;BME280;10465;42.686;23.364;2023-06-10T07:39:12;94608.44;;;22.78;66.54
20612;BME280;10465;42.686;23.364;2023-06-10T07:41:38;94609.56;;;22.84;64.96
20612;BME280;10465;42.686;23.364;2023-06-10T07:44:03;94604.16;;;22.88;61.05
20612;BME280;10465;42.686;23.364;2023-06-10T07:46:29;94608.03;;;22.83;60.12
20612;BME280;10465;42.686;23.364;2023-06-10T07:48:54;94606.13;;;22.94;60.54
20612;BME280;10465;42.686;23.364;2023-06-10T07:51:20;94609.19;;;23.00;60.37
20612;BME280;10465;42.686;23.364;2023-06-10T07:53:46;94570.66;;;22.78;58.41
20612;BME280;10465;42.686;23.364;2023-06-10T07:56:11;94587.22;;;22.98;58.53
20612;BME280;10465;42.686;23.364;2023-06-10T07:58:37;94592.53;;;23.19;58.97
20612;BME280;10465;42.686;23.364;2023-06-10T08:01:02;94603.31;;;23.30;57.23
20612;BME280;10465;42.686;23.364;2023-06-10T08:03:28;94609.88;;;23.22;57.26
20612;BME280;10465;42.686;23.364;2023-06-10T08:05:54;94595.19;;;23.30;54.25
20612;BME280;10465;42.686;23.364;2023-06-10T08:08:19;94599.41;;;23.38;53.88
20612;BME280;10465;42.686;23.364;2023-06-10T08:10:45;94603.59;;;23.50;55.71
20612;BME280;10465;42.686;23.364;2023-06-10T08:13:10;94587.78;;;23.45;55.97
20612;BME280;10465;42.686;23.364;2023-06-10T08:15:36;94594.28;;;23.62;56.00
20612;BME280;10465;42.686;23.364;2023-06-10T08:18:01;94599.19;;;23.78;56.50
20612;BME280;10465;42.686;23.364;2023-06-10T08:20:27;94591.78;;;23.92;55.84
20612;BME280;10465;42.686;23.364;2023-06-10T08:22:52;94582.09;;;23.99;56.08
20612;BME280;10465;42.686;23.364;2023-06-10T08:25:18;94577.78;;;24.05;56.42
20612;BME280;10465;42.686;23.364;2023-06-10T08:27:43;94573.91;;;24.06;56.29
20612;BME280;10465;42.686;23.364;2023-06-10T08:30:09;94582.72;;;24.17;56.65
20612;BME280;10465;42.686;23.364;2023-06-10T08:32:36;94576.88;;;24.22;55.17
20612;BME280;10465;42.686;23.364;2023-06-10T08:35:02;94581.06;;;24.30;55.44
20612;BME280;10465;42.686;23.364;2023-06-10T08:37:28;94578.28;;;24.37;54.49
20612;BME280;10465;42.686;23.364;2023-06-10T08:39:54;94532.88;;;24.14;53.92
20612;BME280;10465;42.686;23.364;2023-06-10T08:42:23;94574.34;;;24.49;53.61
20612;BME280;10465;42.686;23.364;2023-06-10T08:44:55;94573.59;;;24.49;53.38
20612;BME280;10465;42.686;23.364;2023-06-10T08:47:22;94568.47;;;24.58;54.22
20612;BME280;10465;42.686;23.364;2023-06-10T08:49:48;94546.13;;;24.50;53.69
20612;BME280;10465;42.686;23.364;2023-06-10T08:52:16;94564.13;;;24.67;52.73
20612;BME280;10465;42.686;23.364;2023-06-10T08:55:07;94551.28;;;24.75;52.42
20612;BME280;10465;42.686;23.364;2023-06-10T08:57:34;94554.28;;;24.84;51.31
20612;BME280;10465;42.686;23.364;2023-06-10T09:00:00;94533.81;;;24.83;50.27
20612;BME280;10465;42.686;23.364;2023-06-10T09:02:27;94544.19;;;24.88;50.15
20612;BME280;10465;42.686;23.364;2023-06-10T09:04:53;94558.06;;;24.90;50.09
20612;BME280;10465;42.686;23.364;2023-06-10T09:07:20;94552.56;;;24.98;49.97
20612;BME280;10465;42.686;23.364;2023-06-10T09:09:46;94534.75;;;25.00;50.52
20612;BME280;10465;42.686;23.364;2023-06-10T09:12:13;94551.13;;;25.24;51.01
20612;BME280;10465;42.686;23.364;2023-06-10T09:14:39;94543.63;;;25.35;49.52
20612;BME280;10465;42.686;23.364;2023-06-10T09:17:06;94526.25;;;25.32;49.03
20612;BME280;10465;42.686;23.364;2023-06-10T09:19:31;94532.94;;;25.51;50.47
20612;BME280;10465;42.686;23.364;2023-06-10T09:21:58;94522.47;;;25.53;50.15
20612;BME280;10465;42.686;23.364;2023-06-10T09:24:24;94538.56;;;25.64;50.60
20612;BME280;10465;42.686;23.364;2023-06-10T09:26:49;94538.75;;;25.53;48.57
20612;BME280;10465;42.686;23.364;2023-06-10T09:29:16;94543.25;;;25.36;48.86
20612;BME280;10465;42.686;23.364;2023-06-10T09:31:43;94537.94;;;25.26;49.57
20612;BME280;10465;42.686;23.364;2023-06-10T09:36:35;94526.75;;;25.24;50.78
20612;BME280;10465;42.686;23.364;2023-06-10T09:39:02;94522.31;;;25.37;49.01
20612;BME280;10465;42.686;23.364;2023-06-10T09:41:40;94512.94;;;25.45;48.59
20612;BME280;10465;42.686;23.364;2023-06-10T09:44:19;94524.03;;;25.81;50.04
20612;BME280;10465;42.686;23.364;2023-06-10T09:46:47;94516.91;;;25.91;49.66
20612;BME280;10465;42.686;23.364;2023-06-10T09:49:13;94523.63;;;26.06;49.96
20612;BME280;10465;42.686;23.364;2023-06-10T09:51:55;94508.81;;;25.87;50.14
20612;BME280;10465;42.686;23.364;2023-06-10T09:54:21;94518.03;;;25.94;49.35
20612;BME280;10465;42.686;23.364;2023-06-10T09:56:51;94489.69;;;25.71;47.77
20612;BME280;10465;42.686;23.364;2023-06-10T09:59:30;94514.44;;;26.00;48.23
20612;BME280;10465;42.686;23.364;2023-06-10T10:01:57;94507.53;;;26.19;47.55
20612;BME280;10465;42.686;23.364;2023-06-10T10:04:26;94510.53;;;26.25;48.17
20612;BME280;10465;42.686;23.364;2023-06-10T10:06:52;94470.81;;;26.14;47.45
20612;BME280;10465;42.686;23.364;2023-06-10T10:09:17;94498.09;;;26.51;45.56
20612;BME280;10465;42.686;23.364;2023-06-10T10:11:43;94511.69;;;26.71;46.27
20612;BME280;10465;42.686;23.364;2023-06-10T10:14:10;94505.63;;;26.83;46.82
20612;BME280;10465;42.686;23.364;2023-06-10T10:16:37;94494.13;;;26.95;46.14
20612;BME280;10465;42.686;23.364;2023-06-10T10:19:30;94495.09;;;27.05;45.87
20612;BME280;10465;42.686;23.364;2023-06-10T10:22:07;94501.53;;;27.15;45.54
20612;BME280;10465;42.686;23.364;2023-06-10T10:24:39;94488.03;;;27.11;45.22
20612;BME280;10465;42.686;23.364;2023-06-10T10:27:11;94495.31;;;27.14;46.19
20612;BME280;10465;42.686;23.364;2023-06-10T10:29:39;94502.38;;;27.11;46.18
20612;BME280;10465;42.686;23.364;2023-06-10T10:32:06;94465.91;;;26.89;44.65
20612;BME280;10465;42.686;23.364;2023-06-10T10:34:36;94487.09;;;27.18;44.55
20612;BME280;10465;42.686;23.364;2023-06-10T10:37:02;94482.41;;;27.18;44.37
20612;BME280;10465;42.686;23.364;2023-06-10T10:39:29;94488.81;;;27.28;43.81
20612;BME280;10465;42.686;23.364;2023-06-10T10:41:55;94474.53;;;27.24;43.90
20612;BME280;10465;42.686;23.364;2023-06-10T10:44:21;94468.69;;;27.42;43.57
20612;BME280;10465;42.686;23.364;2023-06-10T10:46:51;94453.09;;;27.46;42.90
20612;BME280;10465;42.686;23.364;2023-06-10T10:49:18;94484.69;;;27.56;42.48
20612;BME280;10465;42.686;23.364;2023-06-10T10:52:02;94452.91;;;27.53;42.46
20612;BME280;10465;42.686;23.364;2023-06-10T10:54:36;94469.34;;;27.82;40.59
20612;BME280;10465;42.686;23.364;2023-06-10T10:57:21;94464.66;;;27.99;40.65
20612;BME280;10465;42.686;23.364;2023-06-10T11:02:35;94448.84;;;28.10;41.68
20612;BME280;10465;42.686;23.364;2023-06-10T11:05:02;94462.50;;;28.23;41.54
20612;BME280;10465;42.686;23.364;2023-06-10T11:07:30;94454.44;;;28.19;41.72
20612;BME280;10465;42.686;23.364;2023-06-10T11:12:25;94448.09;;;27.93;41.66
20612;BME280;10465;42.686;23.364;2023-06-10T11:14:54;94437.53;;;27.95;41.67
20612;BME280;10465;42.686;23.364;2023-06-10T11:17:21;94428.09;;;28.16;40.90
20612;BME280;10465;42.686;23.364;2023-06-10T11:19:46;94436.47;;;28.38;40.27
20612;BME280;10465;42.686;23.364;2023-06-10T11:22:16;94408.59;;;28.18;39.44
20612;BME280;10465;42.686;23.364;2023-06-10T11:24:48;94432.16;;;28.24;41.38
20612;BME280;10465;42.686;23.364;2023-06-10T11:27:21;94429.97;;;28.03;42.17
20612;BME280;10465;42.686;23.364;2023-06-10T11:30:18;94384.63;;;27.51;42.80
20612;BME280;10465;42.686;23.364;2023-06-10T11:32:44;94421.13;;;27.50;42.80
20612;BME280;10465;42.686;23.364;2023-06-10T11:35:11;94388.66;;;27.10;43.28
20612;BME280;10465;42.686;23.364;2023-06-10T11:37:37;94415.00;;;27.13;42.85
20612;BME280;10465;42.686;23.364;2023-06-10T11:40:03;94422.91;;;27.24;42.80
20612;BME280;10465;42.686;23.364;2023-06-10T11:42:29;94401.09;;;27.27;41.80
20612;BME280;10465;42.686;23.364;2023-06-10T11:44:54;94381.31;;;27.27;41.25
20612;BME280;10465;42.686;23.364;2023-06-10T11:47:20;94412.31;;;27.62;40.89
20612;BME280;10465;42.686;23.364;2023-06-10T11:49:56;94413.25;;;27.55;39.56
20612;BME280;10465;42.686;23.364;2023-06-10T11:52:31;94392.59;;;27.42;39.55
20612;BME280;10465;42.686;23.364;2023-06-10T11:55:05;94409.06;;;27.34;38.77
20612;BME280;10465;42.686;23.364;2023-06-10T11:57:34;94406.94;;;27.42;38.57
20612;BME280;10465;42.686;23.364;2023-06-10T12:00:06;94396.69;;;27.50;38.67
20612;BME280;10465;42.686;23.364;2023-06-10T12:02:32;94406.13;;;27.78;37.12
20612;BME280;10465;42.686;23.364;2023-06-10T12:05:10;94395.72;;;28.05;37.15
20612;BME280;10465;42.686;23.364;2023-06-10T12:07:35;94408.94;;;28.36;35.98
20612;BME280;10465;42.686;23.364;2023-06-10T12:10:01;94398.75;;;28.53;35.16
20612;BME280;10465;42.686;23.364;2023-06-10T12:12:26;94394.75;;;28.70;33.88
20612;BME280;10465;42.686;23.364;2023-06-10T12:14:55;94406.41;;;28.71;33.26
20612;BME280;10465;42.686;23.364;2023-06-10T12:17:35;94393.41;;;28.62;33.54
20612;BME280;10465;42.686;23.364;2023-06-10T12:20:04;94401.84;;;28.39;33.50
20612;BME280;10465;42.686;23.364;2023-06-10T12:22:56;94368.22;;;28.16;33.62
20612;BME280;10465;42.686;23.364;2023-06-10T12:25:26;94388.25;;;28.22;34.15
20612;BME280;10465;42.686;23.364;2023-06-10T12:27:53;94384.06;;;28.05;35.29
20612;BME280;10465;42.686;23.364;2023-06-10T12:30:20;94377.25;;;27.84;34.37
20612;BME280;10465;42.686;23.364;2023-06-10T12:32:47;94348.34;;;27.57;34.67
20612;BME280;10465;42.686;23.364;2023-06-10T12:35:16;94384.09;;;27.72;33.85
20612;BME280;10465;42.686;23.364;2023-06-10T12:37:43;94351.44;;;27.43;33.56
20612;BME280;10465;42.686;23.364;2023-06-10T12:40:26;94358.63;;;27.50;35.92
20612;BME280;10465;42.686;23.364;2023-06-10T12:42:52;94346.25;;;27.32;35.58
20612;BME280;10465;42.686;23.364;2023-06-10T12:45:26;94364.41;;;27.52;35.15
20612;BME280;10465;42.686;23.364;2023-06-10T12:48:24;94342.25;;;27.37;35.07
20612;BME280;10465;42.686;23.364;2023-06-10T12:50:57;94359.22;;;27.41;35.51
20612;BME280;10465;42.686;23.364;2023-06-10T12:53:24;94366.09;;;27.46;35.99
20612;BME280;10465;42.686;23.364;2023-06-10T12:55:50;94369.25;;;27.44;36.30
20612;BME280;10465;42.686;23.364;2023-06-10T12:58:16;94367.13;;;27.35;35.86